Time;durP1;ratioP1;P1;durP2;ratioP2;P2;SDS_P1;SDS_P2;PMS_P1;PMS_P2;Temp;Humidity;BMP_temperature;BMP_pressure;BME280_temperature;BME280_humidity;BME280_pressure;Samples;Min_cycle;Max_cycle;Signal;HPM_P1;HPM_P2
2022/01/16 00:00:52;;;;;;;32.63;12.60;;;;;;;;;;5048746;28;20458;-81
2022/01/16 00:06:02;;;;;;;22.63;9.30;;;;;;;;;;5013726;28;20446;-81
2022/01/16 00:08:39;;;;;;;16.43;9.63;;;;;;;;;;5048663;28;20430;-81
2022/01/16 00:11:06;;;;;;;16.13;10.10;;;;;;;;;;5044761;28;20516;-81
2022/01/16 00:13:34;;;;;;;15.10;8.60;;;;;;;;;;5048102;28;20454;-80
2022/01/16 00:16:01;;;;;;;15.53;9.30;;;;;;;;;;5047073;28;20458;-81
2022/01/16 00:18:40;;;;;;;19.13;9.50;;;;;;;;;;5044964;28;20519;-82
2022/01/16 00:21:09;;;;;;;18.83;10.53;;;;;;;;;;5045832;28;20535;-81
2022/01/16 00:23:37;;;;;;;16.60;10.00;;;;;;;;;;5043605;28;20446;-81
2022/01/16 00:26:04;;;;;;;18.37;10.40;;;;;;;;;;5044895;28;20439;-81
2022/01/16 00:28:32;;;;;;;18.03;9.80;;;;;;;;;;5047231;28;20446;-81
2022/01/16 00:30:59;;;;;;;21.40;11.20;;;;;;;;;;5044583;28;20516;-82
2022/01/16 00:33:27;;;;;;;23.60;11.53;;;;;;;;;;5046082;28;20450;-80
2022/01/16 00:35:54;;;;;;;16.83;9.83;;;;;;;;;;5044466;28;20466;-82
2022/01/16 00:38:23;;;;;;;17.03;9.77;;;;;;;;;;5047075;28;20450;-80
2022/01/16 00:40:51;;;;;;;17.50;9.70;;;;;;;;;;5046780;28;20508;-80
2022/01/16 00:43:18;;;;;;;20.17;10.80;;;;;;;;;;5046331;28;20450;-82
2022/01/16 00:45:46;;;;;;;17.97;9.33;;;;;;;;;;5045674;28;20801;-80
2022/01/16 00:48:14;;;;;;;17.73;8.50;;;;;;;;;;5046465;28;20446;-81
2022/01/16 00:50:41;;;;;;;15.53;9.03;;;;;;;;;;5046605;28;20697;-82
2022/01/16 00:53:09;;;;;;;18.53;9.63;;;;;;;;;;5048017;28;20430;-82
2022/01/16 00:55:38;;;;;;;18.10;9.43;;;;;;;;;;5045663;28;20478;-82
2022/01/16 00:58:06;;;;;;;16.83;8.87;;;;;;;;;;5046629;28;20458;-81
2022/01/16 01:00:40;;;;;;;15.20;8.93;;;;;;;;;;5045214;28;20442;-82
2022/01/16 01:03:08;;;;;;;17.20;8.30;;;;;;;;;;5046459;28;20928;-83
2022/01/16 01:05:35;;;;;;;12.80;8.07;;;;;;;;;;5046850;28;20458;-82
2022/01/16 01:08:04;;;;;;;16.30;10.33;;;;;;;;;;5044543;28;20450;-82
2022/01/16 01:10:34;;;;;;;15.07;9.90;;;;;;;;;;5045689;28;20485;-82
2022/01/16 01:13:10;;;;;;;14.47;8.83;;;;;;;;;;5046176;28;20493;-81
2022/01/16 01:15:44;;;;;;;16.17;8.83;;;;;;;;;;5047614;28;20723;-81
2022/01/16 01:18:13;;;;;;;12.70;8.57;;;;;;;;;;5046946;28;20517;-82
2022/01/16 01:20:42;;;;;;;12.07;8.33;;;;;;;;;;5046878;28;20877;-81
2022/01/16 01:23:09;;;;;;;13.30;9.07;;;;;;;;;;5048193;28;20518;-81
2022/01/16 01:25:37;;;;;;;19.50;8.60;;;;;;;;;;5046661;28;20647;-81
2022/01/16 01:28:07;;;;;;;18.87;8.50;;;;;;;;;;5046690;28;20461;-81
2022/01/16 01:30:34;;;;;;;17.27;9.50;;;;;;;;;;5046029;28;20788;-81
2022/01/16 01:33:02;;;;;;;17.23;10.20;;;;;;;;;;5046045;28;20465;-81
2022/01/16 01:35:36;;;;;;;21.87;9.53;;;;;;;;;;5048513;28;20450;-82
2022/01/16 01:38:04;;;;;;;16.23;8.77;;;;;;;;;;5050388;28;20455;-81
2022/01/16 01:40:31;;;;;;;13.00;9.20;;;;;;;;;;5049123;28;20450;-81
2022/01/16 01:51:00;;;;;;;17.70;10.47;;;;;;;;;;5049369;28;20457;-81
2022/01/16 01:51:25;;;;;;;17.33;11.20;;;;;;;;;;5049303;28;20544;-81
2022/01/16 01:53:55;;;;;;;17.40;9.63;;;;;;;;;;5048159;28;20442;-81
2022/01/16 01:56:23;;;;;;;18.33;11.83;;;;;;;;;;5049462;28;20462;-80
2022/01/16 01:58:51;;;;;;;17.40;11.20;;;;;;;;;;5048802;28;20450;-81
2022/01/16 02:01:20;;;;;;;19.93;10.70;;;;;;;;;;5049291;28;20793;-82
2022/01/16 02:03:48;;;;;;;15.40;9.63;;;;;;;;;;5050047;28;20450;-80
2022/01/16 02:06:17;;;;;;;18.40;10.40;;;;;;;;;;5047199;28;20454;-81
2022/01/16 02:08:46;;;;;;;15.97;11.13;;;;;;;;;;5047694;28;20443;-80
2022/01/16 02:11:13;;;;;;;15.43;9.70;;;;;;;;;;5047178;28;20486;-81
2022/01/16 02:13:53;;;;;;;14.80;9.10;;;;;;;;;;5046604;28;20445;-82
2022/01/16 02:34:30;;;;;;;21.63;11.40;;;;;;;;;;5045373;28;20437;-81
2022/01/16 02:36:26;;;;;;;18.27;9.77;;;;;;;;;;5047338;28;20462;-81
2022/01/16 02:38:59;;;;;;;14.10;8.33;;;;;;;;;;5043187;28;20435;-80
2022/01/16 02:41:27;;;;;;;14.67;8.30;;;;;;;;;;5048294;28;20481;-81
2022/01/16 02:43:56;;;;;;;13.63;9.10;;;;;;;;;;5049879;28;20577;-81
2022/01/16 02:46:36;;;;;;;15.33;10.80;;;;;;;;;;5048870;28;20509;-81
2022/01/16 02:49:04;;;;;;;14.50;8.83;;;;;;;;;;5047930;28;20752;-81
2022/01/16 02:51:32;;;;;;;17.40;9.63;;;;;;;;;;5049939;28;20485;-81
2022/01/16 02:54:01;;;;;;;17.90;9.50;;;;;;;;;;5048423;28;20465;-81
2022/01/16 02:56:28;;;;;;;13.17;8.73;;;;;;;;;;5049437;28;20458;-81
2022/01/16 02:58:56;;;;;;;16.17;10.27;;;;;;;;;;5048017;28;20447;-81
2022/01/16 03:01:24;;;;;;;15.73;9.67;;;;;;;;;;5048514;28;20450;-81
2022/01/16 03:03:51;;;;;;;19.40;11.70;;;;;;;;;;5050305;28;20438;-81
2022/01/16 03:06:27;;;;;;;17.97;9.00;;;;;;;;;;5048551;28;20501;-81
2022/01/16 03:08:55;;;;;;;18.57;11.10;;;;;;;;;;5046856;28;20450;-81
2022/01/16 03:11:34;;;;;;;13.40;9.13;;;;;;;;;;5047914;28;20737;-81
2022/01/16 03:14:01;;;;;;;20.43;10.90;;;;;;;;;;5046871;28;20478;-81
2022/01/16 03:16:29;;;;;;;14.43;9.60;;;;;;;;;;5047556;28;20458;-81
2022/01/16 03:21:55;;;;;;;19.97;13.10;;;;;;;;;;5045676;28;20484;-80
2022/01/16 03:24:25;;;;;;;16.90;9.87;;;;;;;;;;5046781;28;20458;-81
2022/01/16 03:26:54;;;;;;;21.83;11.20;;;;;;;;;;5046806;28;20494;-81
2022/01/16 03:29:22;;;;;;;19.90;11.73;;;;;;;;;;5046495;28;20745;-81
2022/01/16 03:31:50;;;;;;;19.07;12.07;;;;;;;;;;5047530;28;20495;-81
2022/01/16 03:34:17;;;;;;;20.00;12.37;;;;;;;;;;5045852;28;20454;-80
2022/01/16 03:36:45;;;;;;;19.30;10.60;;;;;;;;;;5045614;28;20516;-81
2022/01/16 03:39:13;;;;;;;15.57;9.97;;;;;;;;;;5048182;28;20473;-81
2022/01/16 03:41:40;;;;;;;17.87;11.87;;;;;;;;;;5045443;28;20473;-80
2022/01/16 03:44:10;;;;;;;19.30;10.70;;;;;;;;;;5048947;28;20447;-81
2022/01/16 03:46:38;;;;;;;18.30;10.63;;;;;;;;;;5046660;28;20493;-80
2022/01/16 03:49:08;;;;;;;18.37;10.57;;;;;;;;;;5046592;28;20446;-80
2022/01/16 03:51:36;;;;;;;23.70;13.63;;;;;;;;;;5048346;28;20743;-80
2022/01/16 03:54:04;;;;;;;23.20;12.63;;;;;;;;;;5046345;28;20481;-81
2022/01/16 03:56:31;;;;;;;23.30;11.67;;;;;;;;;;5046231;28;20454;-81
2022/01/16 03:58:59;;;;;;;24.23;14.17;;;;;;;;;;5046894;28;20446;-80
2022/01/16 04:01:28;;;;;;;22.13;12.33;;;;;;;;;;5044644;28;20678;-80
2022/01/16 04:03:56;;;;;;;25.13;14.27;;;;;;;;;;5047484;28;20589;-80
2022/01/16 04:06:24;;;;;;;20.57;13.40;;;;;;;;;;5045773;28;20730;-80
2022/01/16 04:08:52;;;;;;;23.60;12.80;;;;;;;;;;5046230;28;20463;-81
2022/01/16 04:11:20;;;;;;;20.07;12.07;;;;;;;;;;5046650;28;20485;-81
2022/01/16 04:13:51;;;;;;;23.00;12.17;;;;;;;;;;5044881;28;20921;-81
2022/01/16 04:16:19;;;;;;;21.10;11.73;;;;;;;;;;5047094;28;20724;-81
2022/01/16 04:18:51;;;;;;;24.60;13.20;;;;;;;;;;5045582;28;20797;-81
2022/01/16 04:21:18;;;;;;;24.80;11.63;;;;;;;;;;5046052;28;20730;-81
2022/01/16 04:23:47;;;;;;;22.00;10.40;;;;;;;;;;5046258;28;20466;-81
2022/01/16 04:26:15;;;;;;;15.93;11.17;;;;;;;;;;5044186;28;20470;-81
2022/01/16 04:28:43;;;;;;;23.63;15.63;;;;;;;;;;5045580;28;20461;-81
2022/01/16 04:31:11;;;;;;;21.10;12.60;;;;;;;;;;5044991;28;20498;-80
2022/01/16 04:33:38;;;;;;;25.13;12.33;;;;;;;;;;5044304;28;20513;-82
2022/01/16 04:36:08;;;;;;;30.20;13.80;;;;;;;;;;5045445;28;20564;-81
2022/01/16 04:38:36;;;;;;;29.30;13.60;;;;;;;;;;5042217;28;20458;-81
2022/01/16 04:43:51;;;;;;;37.97;13.53;;;;;;;;;;5042738;28;20517;-81
2022/01/16 04:46:19;;;;;;;19.83;10.40;;;;;;;;;;5044515;28;20830;-81
2022/01/16 04:48:47;;;;;;;20.90;11.63;;;;;;;;;;5046450;28;20439;-81
2022/01/16 04:51:16;;;;;;;24.20;13.20;;;;;;;;;;5044720;28;20497;-82
2022/01/16 04:53:51;;;;;;;25.10;11.30;;;;;;;;;;5044416;28;20454;-81
2022/01/16 04:56:19;;;;;;;25.17;11.57;;;;;;;;;;5045863;28;20470;-81
2022/01/16 04:58:46;;;;;;;27.80;13.10;;;;;;;;;;5041870;28;20454;-80
2022/01/16 05:01:15;;;;;;;22.43;12.73;;;;;;;;;;5044517;28;20446;-80
2022/01/16 05:03:43;;;;;;;23.77;12.40;;;;;;;;;;5042909;28;20489;-81
2022/01/16 05:06:11;;;;;;;19.70;9.73;;;;;;;;;;5041569;28;20781;-81
2022/01/16 05:08:40;;;;;;;18.90;9.70;;;;;;;;;;5046554;28;20553;-81
2022/01/16 05:11:11;;;;;;;22.00;10.97;;;;;;;;;;5048064;28;20489;-82
2022/01/16 05:16:37;;;;;;;25.17;12.27;;;;;;;;;;5048949;28;20432;-80
2022/01/16 05:19:06;;;;;;;16.53;10.03;;;;;;;;;;5047356;28;20876;-81
2022/01/16 05:21:34;;;;;;;13.10;7.93;;;;;;;;;;5049321;28;20453;-81
2022/01/16 05:24:07;;;;;;;17.23;8.00;;;;;;;;;;5048027;28;20462;-81
2022/01/16 05:26:35;;;;;;;29.47;13.27;;;;;;;;;;5048785;28;20469;-81
2022/01/16 05:29:03;;;;;;;25.67;12.13;;;;;;;;;;5049952;28;20455;-81
2022/01/16 05:31:31;;;;;;;24.70;11.17;;;;;;;;;;5048379;28;20555;-82
2022/01/16 05:33:58;;;;;;;18.57;10.47;;;;;;;;;;5050199;28;20795;-81
2022/01/16 05:36:26;;;;;;;22.67;11.33;;;;;;;;;;5050177;28;20449;-81
2022/01/16 05:38:54;;;;;;;20.60;9.97;;;;;;;;;;5048100;28;20450;-79
2022/01/16 05:41:24;;;;;;;21.07;11.10;;;;;;;;;;5049730;28;20460;-81
2022/01/16 05:43:52;;;;;;;23.90;10.37;;;;;;;;;;5048118;28;20442;-81
2022/01/16 05:46:20;;;;;;;26.47;12.60;;;;;;;;;;5049755;28;20480;-81
2022/01/16 05:48:48;;;;;;;26.07;13.80;;;;;;;;;;5050265;28;20521;-81
2022/01/16 05:51:15;;;;;;;20.27;11.23;;;;;;;;;;5048992;28;20472;-82
2022/01/16 05:53:44;;;;;;;15.43;9.70;;;;;;;;;;5049951;28;20731;-82
2022/01/16 05:56:12;;;;;;;29.07;12.83;;;;;;;;;;5048528;28;20486;-81
2022/01/16 05:58:42;;;;;;;22.63;10.70;;;;;;;;;;5050024;28;20541;-81
2022/01/16 06:01:09;;;;;;;21.33;11.17;;;;;;;;;;5049823;28;20747;-82
2022/01/16 06:03:37;;;;;;;22.27;12.10;;;;;;;;;;5047591;28;20527;-82
2022/01/16 06:06:05;;;;;;;22.80;10.90;;;;;;;;;;5048443;28;20526;-81
2022/01/16 06:08:48;;;;;;;11.63;5.10;;;;;;;;;;5048090;28;20534;-81
2022/01/16 06:11:16;;;;;;;19.30;10.57;;;;;;;;;;5051282;28;20933;-81
2022/01/16 06:13:45;;;;;;;18.00;9.20;;;;;;;;;;5048950;28;20739;-82
2022/01/16 06:16:14;;;;;;;18.80;9.83;;;;;;;;;;5047972;28;20854;-81
2022/01/16 06:18:41;;;;;;;21.90;10.23;;;;;;;;;;5050005;28;20461;-81
2022/01/16 06:21:09;;;;;;;18.87;10.80;;;;;;;;;;5047553;28;20484;-81
2022/01/16 06:23:37;;;;;;;17.33;11.13;;;;;;;;;;5049860;28;20469;-81
2022/01/16 06:26:04;;;;;;;21.00;11.10;;;;;;;;;;5048482;28;20897;-81
2022/01/16 06:28:32;;;;;;;22.33;12.23;;;;;;;;;;5048201;28;20517;-81
2022/01/16 06:31:02;;;;;;;20.03;9.80;;;;;;;;;;5048893;28;20781;-80
2022/01/16 06:33:29;;;;;;;15.80;9.33;;;;;;;;;;5047987;28;20490;-80
2022/01/16 06:35:57;;;;;;;17.77;10.67;;;;;;;;;;5048342;28;20524;-82
2022/01/16 06:38:24;;;;;;;15.30;9.70;;;;;;;;;;5048242;28;20454;-82
2022/01/16 06:40:52;;;;;;;22.17;11.00;;;;;;;;;;5047371;28;20450;-81
2022/01/16 06:43:22;;;;;;;22.63;7.50;;;;;;;;;;5048090;28;20473;-81
2022/01/16 06:45:50;;;;;;;20.10;12.07;;;;;;;;;;5047080;28;20489;-81
2022/01/16 06:48:18;;;;;;;18.47;9.87;;;;;;;;;;5049779;28;20450;-81
2022/01/16 06:50:46;;;;;;;8.17;6.43;;;;;;;;;;5047818;28;20508;-82
2022/01/16 06:53:18;;;;;;;21.37;10.73;;;;;;;;;;5048405;28;20482;-80
2022/01/16 06:55:45;;;;;;;20.57;11.00;;;;;;;;;;5047263;28;20726;-81
2022/01/16 06:58:13;;;;;;;24.20;11.70;;;;;;;;;;5043353;28;20704;-81
2022/01/16 07:00:40;;;;;;;22.10;10.73;;;;;;;;;;5045745;28;20463;-81
2022/01/16 07:03:08;;;;;;;14.10;8.17;;;;;;;;;;5047311;28;20443;-82
2022/01/16 07:05:37;;;;;;;22.77;10.97;;;;;;;;;;5048616;28;20446;-81
2022/01/16 07:08:05;;;;;;;21.53;11.20;;;;;;;;;;5049575;28;20553;-80
2022/01/16 07:10:32;;;;;;;15.30;7.90;;;;;;;;;;5045525;28;20486;-81
2022/01/16 07:13:01;;;;;;;23.70;11.80;;;;;;;;;;5045745;28;20880;-80
2022/01/16 07:15:29;;;;;;;23.60;13.40;;;;;;;;;;5044057;28;20704;-81
2022/01/16 07:17:57;;;;;;;26.70;13.80;;;;;;;;;;5047548;28;20458;-81
2022/01/16 07:20:25;;;;;;;22.57;11.37;;;;;;;;;;5048604;28;20450;-81
2022/01/16 07:22:54;;;;;;;17.93;9.90;;;;;;;;;;5047923;28;20529;-81
2022/01/16 07:25:21;;;;;;;23.80;13.10;;;;;;;;;;5048685;28;20455;-81
2022/01/16 07:27:49;;;;;;;29.47;13.00;;;;;;;;;;5046560;28;20470;-81
2022/01/16 07:30:17;;;;;;;26.83;12.50;;;;;;;;;;5048723;28;20450;-81
2022/01/16 07:32:44;;;;;;;22.23;9.67;;;;;;;;;;5047363;28;20580;-81
2022/01/16 07:35:12;;;;;;;32.10;14.20;;;;;;;;;;5046441;28;20435;-82
2022/01/16 07:37:39;;;;;;;22.43;11.37;;;;;;;;;;5048012;28;20462;-81
2022/01/16 07:40:10;;;;;;;27.90;13.77;;;;;;;;;;5045707;28;20799;-81
2022/01/16 07:42:37;;;;;;;26.93;14.43;;;;;;;;;;5047809;28;20459;-82
2022/01/16 07:45:07;;;;;;;25.43;13.60;;;;;;;;;;5046677;28;20882;-81
2022/01/16 07:47:34;;;;;;;32.17;15.50;;;;;;;;;;5046116;28;20489;-81
2022/01/16 07:50:02;;;;;;;13.30;10.13;;;;;;;;;;5046888;28;20845;-81
2022/01/16 07:52:29;;;;;;;24.17;12.27;;;;;;;;;;5046299;28;20482;-81
2022/01/16 07:54:57;;;;;;;31.93;15.80;;;;;;;;;;5047689;28;20458;-81
2022/01/16 07:57:26;;;;;;;34.30;17.20;;;;;;;;;;5047248;28;20466;-80
2022/01/16 07:59:53;;;;;;;33.10;16.57;;;;;;;;;;5046967;28;20454;-81
2022/01/16 08:02:21;;;;;;;29.93;15.17;;;;;;;;;;5047205;28;20474;-82
2022/01/16 08:04:48;;;;;;;25.93;10.57;;;;;;;;;;5045978;28;20664;-82
2022/01/16 08:07:16;;;;;;;30.47;14.67;;;;;;;;;;5046952;28;20458;-81
2022/01/16 08:09:44;;;;;;;38.77;17.77;;;;;;;;;;5046707;28;20434;-81
2022/01/16 08:12:14;;;;;;;31.37;12.87;;;;;;;;;;5046420;28;20576;-81
2022/01/16 08:14:43;;;;;;;28.30;17.03;;;;;;;;;;5047034;28;20450;-81
2022/01/16 08:17:12;;;;;;;33.07;15.97;;;;;;;;;;5044872;28;20446;-79
2022/01/16 08:19:39;;;;;;;30.20;14.90;;;;;;;;;;5046530;28;20451;-80
2022/01/16 08:22:07;;;;;;;31.97;16.50;;;;;;;;;;5046815;28;20484;-81
2022/01/16 08:24:34;;;;;;;20.10;10.57;;;;;;;;;;5045644;28;20473;-81
2022/01/16 08:27:02;;;;;;;32.13;17.03;;;;;;;;;;5046687;28;20515;-81
2022/01/16 08:29:29;;;;;;;32.23;16.67;;;;;;;;;;5045760;28;20446;-81
2022/01/16 08:31:58;;;;;;;25.93;13.53;;;;;;;;;;5047122;28;20787;-80
2022/01/16 08:34:26;;;;;;;36.40;16.50;;;;;;;;;;5045823;28;20455;-81
2022/01/16 08:36:53;;;;;;;20.83;10.60;;;;;;;;;;5045366;28;20525;-81
2022/01/16 08:39:26;;;;;;;38.50;16.63;;;;;;;;;;5045818;28;20460;-81
2022/01/16 08:41:54;;;;;;;29.27;14.30;;;;;;;;;;5044800;28;20862;-81
2022/01/16 08:44:22;;;;;;;22.57;12.53;;;;;;;;;;5050947;28;20485;-81
2022/01/16 08:46:56;;;;;;;16.50;9.13;;;;;;;;;;5051404;28;20549;-81
2022/01/16 08:49:25;;;;;;;30.97;16.87;;;;;;;;;;5049999;28;20516;-80
2022/01/16 08:51:55;;;;;;;19.63;10.40;;;;;;;;;;5051960;28;20552;-80
2022/01/16 08:54:23;;;;;;;26.03;13.30;;;;;;;;;;5050074;28;20834;-80
2022/01/16 08:56:50;;;;;;;34.33;14.50;;;;;;;;;;5051158;28;20872;-81
2022/01/16 08:59:18;;;;;;;23.10;12.10;;;;;;;;;;5051019;28;20447;-80
2022/01/16 09:01:45;;;;;;;17.60;10.30;;;;;;;;;;5049256;28;20454;-80
2022/01/16 09:04:13;;;;;;;27.13;12.63;;;;;;;;;;5049156;28;20442;-81
2022/01/16 09:06:42;;;;;;;39.73;18.50;;;;;;;;;;5048318;28;20450;-80
2022/01/16 09:09:10;;;;;;;26.90;13.73;;;;;;;;;;5049045;28;20732;-80
2022/01/16 09:11:38;;;;;;;16.60;11.03;;;;;;;;;;5050846;28;20461;-80
2022/01/16 09:14:05;;;;;;;20.13;11.67;;;;;;;;;;5049276;28;20513;-80
2022/01/16 09:16:33;;;;;;;31.73;15.03;;;;;;;;;;5050748;28;20454;-80
2022/01/16 09:19:01;;;;;;;34.70;15.60;;;;;;;;;;5048850;28;20450;-80
2022/01/16 09:21:29;;;;;;;37.67;16.13;;;;;;;;;;5049355;28;20462;-80
2022/01/16 09:23:58;;;;;;;27.73;15.17;;;;;;;;;;5048290;28;20701;-81
2022/01/16 09:26:26;;;;;;;30.30;14.57;;;;;;;;;;5046984;28;20536;-81
2022/01/16 09:28:54;;;;;;;39.23;16.97;;;;;;;;;;5050372;28;20794;-81
2022/01/16 09:31:22;;;;;;;47.33;16.53;;;;;;;;;;5049013;28;20455;-80
2022/01/16 09:33:56;;;;;;;34.00;16.33;;;;;;;;;;5052295;28;20486;-81
2022/01/16 09:36:24;;;;;;;27.93;12.23;;;;;;;;;;5049301;28;20804;-81
2022/01/16 09:38:52;;;;;;;27.63;14.50;;;;;;;;;;5054247;28;20454;-80
2022/01/16 09:41:25;;;;;;;31.13;15.00;;;;;;;;;;5053489;28;20447;-80
2022/01/16 09:43:54;;;;;;;31.80;16.40;;;;;;;;;;5045677;28;20504;-81
2022/01/16 09:46:22;;;;;;;31.77;15.50;;;;;;;;;;5048161;28;20878;-81
2022/01/16 09:48:52;;;;;;;39.63;13.47;;;;;;;;;;5052923;28;20447;-81
2022/01/16 09:51:20;;;;;;;22.07;10.67;;;;;;;;;;5051246;28;20454;-81
2022/01/16 09:53:47;;;;;;;34.67;17.20;;;;;;;;;;5050859;28;20478;-80
2022/01/16 09:56:15;;;;;;;37.00;15.70;;;;;;;;;;5049584;28;20454;-81
2022/01/16 09:58:47;;;;;;;49.17;20.37;;;;;;;;;;5051098;28;20453;-81
2022/01/16 10:01:14;;;;;;;31.10;14.97;;;;;;;;;;5050676;28;20462;-80
2022/01/16 10:03:43;;;;;;;31.63;12.10;;;;;;;;;;5051348;28;20846;-80
2022/01/16 10:06:15;;;;;;;42.80;17.00;;;;;;;;;;5050759;28;20461;-81
2022/01/16 10:08:43;;;;;;;36.17;16.33;;;;;;;;;;5047749;28;20758;-81
2022/01/16 10:11:21;;;;;;;29.00;14.77;;;;;;;;;;5044354;28;20462;-81
2022/01/16 10:13:57;;;;;;;31.97;14.00;;;;;;;;;;5044362;28;20482;-80
2022/01/16 10:16:31;;;;;;;39.90;15.50;;;;;;;;;;5046341;28;20589;-81
2022/01/16 10:18:59;;;;;;;30.73;13.17;;;;;;;;;;5044596;28;20456;-80
2022/01/16 10:21:34;;;;;;;24.70;13.57;;;;;;;;;;5046581;28;20489;-81
2022/01/16 10:24:01;;;;;;;38.90;15.70;;;;;;;;;;5048612;28;20789;-79
2022/01/16 10:26:29;;;;;;;41.77;17.67;;;;;;;;;;5048453;28;20807;-80
2022/01/16 10:28:58;;;;;;;28.10;11.83;;;;;;;;;;5050847;28;20475;-80
2022/01/16 10:31:31;;;;;;;37.83;15.63;;;;;;;;;;5049590;28;20800;-80
2022/01/16 10:34:01;;;;;;;31.70;14.10;;;;;;;;;;5048277;28;20485;-78
2022/01/16 10:36:32;;;;;;;39.20;17.67;;;;;;;;;;5048223;28;20492;-80
2022/01/16 10:39:05;;;;;;;42.17;20.87;;;;;;;;;;5050555;28;20817;-80
2022/01/16 10:41:32;;;;;;;31.50;15.50;;;;;;;;;;5051415;28;20489;-79
2022/01/16 10:44:02;;;;;;;38.60;15.40;;;;;;;;;;5050603;28;20438;-80
2022/01/16 10:46:29;;;;;;;41.43;19.07;;;;;;;;;;5049719;28;20454;-79
2022/01/16 10:49:12;;;;;;;34.90;14.07;;;;;;;;;;5044217;28;20450;-79
2022/01/16 10:51:40;;;;;;;39.47;17.90;;;;;;;;;;5047160;28;20462;-79
2022/01/16 10:54:27;;;;;;;38.53;15.57;;;;;;;;;;5043336;28;20533;-79
2022/01/16 10:56:55;;;;;;;21.40;10.63;;;;;;;;;;5046024;28;20454;-79
2022/01/16 10:59:27;;;;;;;36.10;19.30;;;;;;;;;;5045503;28;20458;-78
2022/01/16 11:02:07;;;;;;;36.47;16.30;;;;;;;;;;5042918;28;20897;-77
2022/01/16 11:04:35;;;;;;;33.63;13.53;;;;;;;;;;5045343;28;20478;-79
2022/01/16 11:07:03;;;;;;;28.50;9.60;;;;;;;;;;5041979;28;20468;-77
2022/01/16 11:09:31;;;;;;;37.77;16.73;;;;;;;;;;5041726;28;20458;-79
2022/01/16 11:12:00;;;;;;;37.63;16.17;;;;;;;;;;5038640;28;20466;-79
2022/01/16 11:14:29;;;;;;;38.50;18.07;;;;;;;;;;5039057;28;20568;-80
2022/01/16 11:16:58;;;;;;;26.17;14.20;;;;;;;;;;5041484;28;20640;-79
2022/01/16 11:19:26;;;;;;;24.27;12.63;;;;;;;;;;5040672;28;20461;-80
2022/01/16 11:21:56;;;;;;;36.27;13.90;;;;;;;;;;5040854;28;20516;-80
2022/01/16 11:24:34;;;;;;;35.10;16.10;;;;;;;;;;5043427;28;20517;-80
2022/01/16 11:27:02;;;;;;;21.00;10.87;;;;;;;;;;5040407;28;20473;-79
2022/01/16 11:29:32;;;;;;;32.80;14.17;;;;;;;;;;5041765;28;20451;-80
2022/01/16 11:32:01;;;;;;;32.40;14.40;;;;;;;;;;5042295;28;20458;-78
2022/01/16 11:34:29;;;;;;;31.73;14.57;;;;;;;;;;5042638;28;20716;-79
2022/01/16 11:36:56;;;;;;;34.77;15.40;;;;;;;;;;5044837;28;20513;-81
2022/01/16 11:39:24;;;;;;;21.70;12.80;;;;;;;;;;5041687;28;20458;-81
2022/01/16 11:41:55;;;;;;;24.13;14.53;;;;;;;;;;5041103;28;20451;-80
2022/01/16 11:44:27;;;;;;;28.13;14.17;;;;;;;;;;5041734;28;21027;-79
2022/01/16 11:46:57;;;;;;;24.17;13.40;;;;;;;;;;5021239;28;20506;-80
2022/01/16 11:49:34;;;;;;;14.70;9.10;;;;;;;;;;5023814;28;20760;-80
2022/01/16 11:52:13;;;;;;;32.10;15.73;;;;;;;;;;5023001;28;20462;-81
2022/01/16 11:54:42;;;;;;;29.00;12.17;;;;;;;;;;5023223;28;20513;-81
2022/01/16 11:57:21;;;;;;;24.23;10.80;;;;;;;;;;5024070;28;20527;-81
2022/01/16 11:59:49;;;;;;;36.33;14.80;;;;;;;;;;5023278;28;20443;-81
2022/01/16 12:02:23;;;;;;;25.27;13.83;;;;;;;;;;5027444;28;20471;-80
2022/01/16 12:05:08;;;;;;;22.53;12.47;;;;;;;;;;5022790;28;20443;-80
2022/01/16 12:07:46;;;;;;;25.43;11.30;;;;;;;;;;5021191;28;20501;-81
2022/01/16 12:10:14;;;;;;;26.20;12.03;;;;;;;;;;5020884;28;20908;-80
2022/01/16 12:12:42;;;;;;;21.97;9.57;;;;;;;;;;5021748;28;20447;-80
2022/01/16 12:15:10;;;;;;;18.27;10.37;;;;;;;;;;5021101;28;20514;-79
2022/01/16 12:17:45;;;;;;;33.63;16.40;;;;;;;;;;5023019;28;20897;-79
2022/01/16 12:20:25;;;;;;;18.40;10.00;;;;;;;;;;5023284;28;20463;-79
2022/01/16 12:22:55;;;;;;;19.90;10.37;;;;;;;;;;5022389;28;20457;-80
2022/01/16 12:25:23;;;;;;;10.67;6.87;;;;;;;;;;5022830;28;20458;-80
2022/01/16 12:27:54;;;;;;;31.93;14.20;;;;;;;;;;5020467;28;20459;-80
2022/01/16 12:30:31;;;;;;;19.43;9.23;;;;;;;;;;5024849;28;20749;-80
2022/01/16 12:33:08;;;;;;;18.80;10.60;;;;;;;;;;5025946;28;20447;-79
2022/01/16 12:36:08;;;;;;;18.63;9.40;;;;;;;;;;5027676;28;20459;-80
2022/01/16 12:38:37;;;;;;;14.53;8.53;;;;;;;;;;5023444;28;20501;-80
2022/01/16 12:41:06;;;;;;;17.97;10.97;;;;;;;;;;5036951;28;20457;-81
2022/01/16 12:43:40;;;;;;;19.10;10.57;;;;;;;;;;5047100;28;20435;-80
2022/01/16 12:46:10;;;;;;;16.77;8.23;;;;;;;;;;5044988;28;20453;-80
2022/01/16 12:48:42;;;;;;;20.20;10.53;;;;;;;;;;5039887;28;20450;-79
2022/01/16 12:51:13;;;;;;;24.33;11.73;;;;;;;;;;5043192;28;20474;-77
2022/01/16 12:53:42;;;;;;;24.43;11.10;;;;;;;;;;5043520;28;20522;-79
2022/01/16 12:56:16;;;;;;;16.30;8.47;;;;;;;;;;5039357;28;20458;-77
2022/01/16 12:58:44;;;;;;;24.67;11.90;;;;;;;;;;5045703;28;20450;-78
2022/01/16 13:01:12;;;;;;;21.03;10.90;;;;;;;;;;5039969;28;20524;-80
2022/01/16 13:03:45;;;;;;;18.83;10.53;;;;;;;;;;5040798;28;20461;-79
2022/01/16 13:06:16;;;;;;;34.53;15.80;;;;;;;;;;5041949;28;20458;-79
2022/01/16 13:08:58;;;;;;;23.50;12.00;;;;;;;;;;5039629;28;20451;-79
2022/01/16 13:11:26;;;;;;;26.37;12.03;;;;;;;;;;5041188;28;20869;-80
2022/01/16 13:14:01;;;;;;;32.27;14.37;;;;;;;;;;5044205;28;20540;-79
2022/01/16 13:16:30;;;;;;;23.93;11.10;;;;;;;;;;5042351;28;20457;-80
2022/01/16 13:19:03;;;;;;;16.53;8.33;;;;;;;;;;5044708;28;20746;-80
2022/01/16 13:21:40;;;;;;;27.77;15.40;;;;;;;;;;5041444;28;20472;-80
2022/01/16 13:24:08;;;;;;;29.33;14.73;;;;;;;;;;5040318;28;20446;-80
2022/01/16 13:26:36;;;;;;;31.83;15.63;;;;;;;;;;5040262;28;20504;-80
2022/01/16 13:29:05;;;;;;;29.03;15.27;;;;;;;;;;5040348;28;20469;-79
2022/01/16 13:31:34;;;;;;;22.53;11.17;;;;;;;;;;5047075;28;20458;-80
2022/01/16 13:34:09;;;;;;;38.60;16.33;;;;;;;;;;5046631;28;20509;-79
2022/01/16 13:36:37;;;;;;;35.97;18.33;;;;;;;;;;5044757;28;20446;-79
2022/01/16 13:39:05;;;;;;;28.33;16.70;;;;;;;;;;5047615;28;20457;-79
2022/01/16 13:41:33;;;;;;;38.87;16.17;;;;;;;;;;5048180;28;21029;-79
2022/01/16 13:44:01;;;;;;;28.50;13.47;;;;;;;;;;5050199;28;20501;-79
2022/01/16 13:46:33;;;;;;;32.83;17.30;;;;;;;;;;5046227;28;20461;-80
2022/01/16 13:49:04;;;;;;;26.80;15.07;;;;;;;;;;5047651;28;20444;-79
2022/01/16 13:51:34;;;;;;;34.67;15.80;;;;;;;;;;5047735;28;20473;-80
2022/01/16 13:54:12;;;;;;;37.70;17.30;;;;;;;;;;5048829;28;20565;-79
2022/01/16 13:56:50;;;;;;;46.60;17.47;;;;;;;;;;5047444;28;20464;-80
2022/01/16 13:59:18;;;;;;;35.83;17.60;;;;;;;;;;5047639;28;20527;-80
2022/01/16 14:01:52;;;;;;;29.47;14.93;;;;;;;;;;5049837;28;20450;-80
2022/01/16 14:04:19;;;;;;;49.70;21.10;;;;;;;;;;5047341;28;20458;-80
2022/01/16 14:06:49;;;;;;;38.10;19.40;;;;;;;;;;5049633;28;20512;-80
2022/01/16 14:09:17;;;;;;;48.47;23.60;;;;;;;;;;5045544;28;20512;-80
2022/01/16 14:11:46;;;;;;;29.20;12.53;;;;;;;;;;5046844;28;20451;-79
2022/01/16 14:14:14;;;;;;;21.30;14.30;;;;;;;;;;5045701;28;20482;-79
2022/01/16 14:16:50;;;;;;;35.07;17.47;;;;;;;;;;5046419;28;20443;-80
2022/01/16 14:19:19;;;;;;;42.53;18.70;;;;;;;;;;5047798;28;20480;-80
2022/01/16 14:22:10;;;;;;;32.97;19.53;;;;;;;;;;5045068;28;20549;-80
2022/01/16 14:24:38;;;;;;;46.93;21.40;;;;;;;;;;5052546;28;20485;-80
2022/01/16 14:27:09;;;;;;;44.53;17.67;;;;;;;;;;5046032;28;20477;-79
2022/01/16 14:29:37;;;;;;;36.73;18.50;;;;;;;;;;5041878;28;20458;-79
2022/01/16 14:32:12;;;;;;;45.50;21.20;;;;;;;;;;5050443;28;20455;-80
2022/01/16 14:34:40;;;;;;;31.87;12.87;;;;;;;;;;5053094;28;20525;-80
2022/01/16 14:37:11;;;;;;;47.37;18.60;;;;;;;;;;5053349;28;20443;-80
2022/01/16 14:39:39;;;;;;;28.77;14.80;;;;;;;;;;5053091;28;20477;-79
2022/01/16 14:42:07;;;;;;;44.97;18.57;;;;;;;;;;5046727;28;20464;-80
2022/01/16 14:44:36;;;;;;;39.70;15.47;;;;;;;;;;5046386;28;20450;-80
2022/01/16 14:47:06;;;;;;;47.83;22.67;;;;;;;;;;5044182;28;20461;-81
2022/01/16 14:49:37;;;;;;;31.80;18.67;;;;;;;;;;5042848;28;20466;-80
2022/01/16 14:52:05;;;;;;;49.10;19.77;;;;;;;;;;5044845;28;20458;-79
2022/01/16 14:54:34;;;;;;;52.23;22.50;;;;;;;;;;5042748;28;20884;-80
2022/01/16 14:57:03;;;;;;;39.53;20.80;;;;;;;;;;5049360;28;20941;-81
2022/01/16 14:59:33;;;;;;;58.70;24.50;;;;;;;;;;5049363;28;20465;-79
2022/01/16 15:02:00;;;;;;;38.43;19.07;;;;;;;;;;5051587;28;20468;-80
2022/01/16 15:04:28;;;;;;;22.93;17.30;;;;;;;;;;5046500;28;20505;-81
2022/01/16 15:06:56;;;;;;;41.60;19.67;;;;;;;;;;5047268;28;20435;-83
2022/01/16 15:09:28;;;;;;;47.53;19.87;;;;;;;;;;5051376;28;20458;-81